createdAt,value
2023-04-30T00:00:21.907Z,95259.00
2023-04-30T00:01:21.916Z,95255.00
2023-04-30T00:02:22.026Z,95259.00
2023-04-30T00:03:22.033Z,95257.00
2023-04-30T00:04:21.934Z,95257.00
2023-04-30T00:05:21.905Z,95255.00
2023-04-30T00:06:21.947Z,95257.00
2023-04-30T00:07:21.899Z,95257.00
2023-04-30T00:08:21.888Z,95255.00
2023-04-30T00:09:21.878Z,95255.00
2023-04-30T00:10:21.888Z,95255.00
2023-04-30T00:11:21.891Z,95253.00
2023-04-30T00:12:21.890Z,95255.00
2023-04-30T00:13:21.949Z,95255.00
2023-04-30T00:14:21.912Z,95255.00
2023-04-30T00:15:21.903Z,95253.00
2023-04-30T00:16:21.932Z,95251.00
2023-04-30T00:17:21.891Z,95253.00
2023-04-30T00:18:21.889Z,95253.00
2023-04-30T00:19:21.901Z,95251.00
2023-04-30T00:20:21.905Z,95253.00
2023-04-30T00:21:21.896Z,95253.00
2023-04-30T00:22:21.886Z,95251.00
2023-04-30T00:23:21.879Z,95251.00
2023-04-30T00:24:21.894Z,95251.00
2023-04-30T00:25:21.884Z,95253.00
2023-04-30T00:26:21.886Z,95249.00
2023-04-30T00:27:21.883Z,95253.00
2023-04-30T00:28:21.877Z,95247.00
2023-04-30T00:29:21.905Z,95249.00
2023-04-30T00:30:21.875Z,95249.00
2023-04-30T00:31:21.900Z,95251.00
2023-04-30T00:32:22.301Z,95249.00
2023-04-30T00:33:21.887Z,95247.00
2023-04-30T00:34:22.290Z,95245.00
2023-04-30T00:35:21.861Z,95247.00
2023-04-30T00:36:21.861Z,95247.00
2023-04-30T00:37:21.862Z,95247.00
2023-04-30T00:38:21.859Z,95247.00
2023-04-30T00:39:21.865Z,95247.00
2023-04-30T00:40:21.864Z,95247.00
2023-04-30T00:41:21.868Z,95247.00
2023-04-30T00:42:21.855Z,95247.00
2023-04-30T00:43:21.854Z,95249.00
2023-04-30T00:44:21.873Z,95249.00
2023-04-30T00:45:21.893Z,95249.00
2023-04-30T00:46:21.949Z,95249.00
2023-04-30T00:47:21.887Z,95249.00
2023-04-30T00:48:21.857Z,95251.00
2023-04-30T00:49:21.868Z,95251.00
2023-04-30T00:50:21.870Z,95251.00
2023-04-30T00:51:21.865Z,95251.00
2023-04-30T00:52:21.866Z,95251.00
2023-04-30T00:53:21.867Z,95251.00
2023-04-30T00:54:21.876Z,95249.00
2023-04-30T00:55:21.876Z,95249.00
2023-04-30T00:56:21.872Z,95249.00
2023-04-30T00:57:21.912Z,95249.00
2023-04-30T00:58:21.884Z,95251.00
2023-04-30T00:59:21.894Z,95253.00
2023-04-30T01:00:21.889Z,95253.00
2023-04-30T01:01:21.950Z,95255.00
2023-04-30T01:02:21.957Z,95255.00
2023-04-30T01:03:21.987Z,95259.00
2023-04-30T01:04:21.906Z,95259.00
2023-04-30T01:05:21.941Z,95261.00
2023-04-30T01:06:21.932Z,95261.00
2023-04-30T01:07:21.945Z,95261.00
2023-04-30T01:08:21.916Z,95261.00
2023-04-30T01:09:21.928Z,95263.00
2023-04-30T01:10:21.930Z,95263.00
2023-04-30T01:11:21.932Z,95263.00
2023-04-30T01:12:21.938Z,95263.00
2023-04-30T01:13:21.945Z,95261.00
2023-04-30T01:14:21.953Z,95263.00
2023-04-30T01:15:21.955Z,95263.00
2023-04-30T01:16:21.986Z,95263.00
2023-04-30T01:17:21.985Z,95261.00
2023-04-30T01:18:22.148Z,95263.00
2023-04-30T01:19:21.971Z,95263.00
2023-04-30T01:20:21.972Z,95263.00
2023-04-30T01:21:21.986Z,95261.00
2023-04-30T01:22:22.001Z,95264.00
2023-04-30T01:23:21.999Z,95264.00
2023-04-30T01:24:21.982Z,95263.00
2023-04-30T01:25:21.990Z,95263.00
2023-04-30T01:26:21.983Z,95264.00
2023-04-30T01:27:21.991Z,95264.00
2023-04-30T01:28:21.986Z,95264.00
2023-04-30T01:29:22.002Z,95263.00
2023-04-30T01:30:21.995Z,95263.00
2023-04-30T01:31:22.036Z,95263.00
2023-04-30T01:32:22.075Z,95263.00
2023-04-30T01:33:22.028Z,95263.00
2023-04-30T01:34:22.005Z,95263.00
2023-04-30T01:35:22.007Z,95259.00
2023-04-30T01:36:22.006Z,95261.00
2023-04-30T01:37:22.013Z,95263.00
2023-04-30T01:38:22.057Z,95263.00
2023-04-30T01:39:22.021Z,95263.00
2023-04-30T01:40:22.046Z,95264.00
2023-04-30T01:41:22.024Z,95264.00
2023-04-30T01:42:22.026Z,95266.00
2023-04-30T01:43:22.031Z,95270.00
2023-04-30T01:44:22.024Z,95270.00
2023-04-30T01:45:22.039Z,95268.00
2023-04-30T01:46:22.100Z,95270.00
2023-04-30T01:47:22.051Z,95272.00
2023-04-30T01:48:22.061Z,95274.00
2023-04-30T01:49:22.104Z,95274.00
2023-04-30T01:50:22.048Z,95274.00
2023-04-30T01:51:22.043Z,95274.00
2023-04-30T01:52:22.037Z,95274.00
2023-04-30T01:53:22.038Z,95274.00
2023-04-30T01:54:22.054Z,95274.00
2023-04-30T01:55:22.054Z,95272.00
2023-04-30T01:56:22.032Z,95276.00
2023-04-30T01:57:22.048Z,95272.00
2023-04-30T01:58:22.042Z,95274.00
2023-04-30T01:59:22.036Z,95272.00
2023-04-30T02:00:22.049Z,95276.00
2023-04-30T02:01:22.062Z,95272.00
2023-04-30T02:02:22.137Z,95276.00
2023-04-30T02:03:22.137Z,95272.00
2023-04-30T02:04:22.031Z,95272.00
2023-04-30T02:05:22.099Z,95272.00
2023-04-30T02:06:22.048Z,95272.00
2023-04-30T02:07:22.032Z,95272.00
2023-04-30T02:08:22.018Z,95270.00
2023-04-30T02:09:22.021Z,95274.00
2023-04-30T02:10:22.018Z,95270.00
2023-04-30T02:11:22.037Z,95276.00
2023-04-30T02:12:22.033Z,95274.00
2023-04-30T02:13:22.036Z,95274.00
2023-04-30T02:14:22.039Z,95274.00
2023-04-30T02:15:22.036Z,95274.00
2023-04-30T02:16:22.041Z,95272.00
2023-04-30T02:17:22.018Z,95274.00
2023-04-30T02:18:22.090Z,95272.00
2023-04-30T02:19:22.024Z,95274.00
2023-04-30T02:20:22.009Z,95270.00
2023-04-30T02:21:22.038Z,95272.00
2023-04-30T02:22:22.008Z,95270.00
2023-04-30T02:23:22.012Z,95274.00
2023-04-30T02:24:22.028Z,95274.00
2023-04-30T02:25:22.025Z,95274.00
2023-04-30T02:26:22.027Z,95276.00
2023-04-30T02:27:22.034Z,95276.00
2023-04-30T02:28:22.035Z,95276.00
2023-04-30T02:29:22.050Z,95278.00
2023-04-30T02:30:22.049Z,95278.00
2023-04-30T02:31:22.112Z,95278.00
2023-04-30T02:32:22.119Z,95280.00
2023-04-30T02:33:22.065Z,95280.00
2023-04-30T02:34:22.084Z,95282.00
2023-04-30T02:35:22.074Z,95284.00
2023-04-30T02:36:22.083Z,95282.00
2023-04-30T02:37:22.182Z,95284.00
2023-04-30T02:38:22.095Z,95280.00
2023-04-30T02:39:22.093Z,95284.00
2023-04-30T02:40:22.087Z,95284.00
2023-04-30T02:41:22.092Z,95282.00
2023-04-30T02:42:22.108Z,95284.00
2023-04-30T02:43:22.106Z,95282.00
2023-04-30T02:44:22.118Z,95284.00
2023-04-30T02:45:22.104Z,95284.00
2023-04-30T02:46:22.217Z,95284.00
2023-04-30T02:47:22.137Z,95280.00
2023-04-30T02:48:22.105Z,95278.00
2023-04-30T02:49:22.115Z,95278.00
2023-04-30T02:50:22.118Z,95278.00
2023-04-30T02:51:22.130Z,95276.00
2023-04-30T02:52:22.126Z,95280.00
2023-04-30T02:53:22.153Z,95278.00
2023-04-30T02:54:22.157Z,95274.00
2023-04-30T02:55:22.138Z,95274.00
2023-04-30T02:56:22.150Z,95274.00
2023-04-30T02:57:22.160Z,95276.00
2023-04-30T02:58:22.182Z,95274.00
2023-04-30T02:59:22.170Z,95274.00
2023-04-30T03:00:22.175Z,95272.00
2023-04-30T03:01:22.237Z,95272.00
2023-04-30T03:02:22.190Z,95272.00
2023-04-30T03:03:22.320Z,95270.00
2023-04-30T03:04:22.165Z,95268.00
2023-04-30T03:05:22.159Z,95270.00
2023-04-30T03:06:22.228Z,95270.00
2023-04-30T03:07:22.829Z,95266.00
2023-04-30T03:08:22.163Z,95266.00
2023-04-30T03:09:22.194Z,95268.00
2023-04-30T03:10:22.160Z,95268.00
2023-04-30T03:11:22.152Z,95268.00
2023-04-30T03:12:22.205Z,95270.00
2023-04-30T03:13:22.164Z,95272.00
2023-04-30T03:14:22.155Z,95272.00
2023-04-30T03:15:22.161Z,95274.00
2023-04-30T03:16:22.290Z,95274.00
2023-04-30T03:17:22.201Z,95274.00
2023-04-30T03:18:22.176Z,95272.00
2023-04-30T03:19:22.202Z,95274.00
2023-04-30T03:20:22.191Z,95274.00
2023-04-30T03:21:22.193Z,95276.00
2023-04-30T03:22:22.202Z,95278.00
2023-04-30T03:23:22.208Z,95276.00
2023-04-30T03:24:22.204Z,95276.00
2023-04-30T03:25:22.236Z,95276.00
2023-04-30T03:26:22.209Z,95278.00
2023-04-30T03:27:22.204Z,95278.00
2023-04-30T03:28:22.225Z,95276.00
2023-04-30T03:29:22.235Z,95278.00
2023-04-30T03:30:22.233Z,95274.00
2023-04-30T03:31:22.284Z,95276.00
2023-04-30T03:32:22.311Z,95274.00
2023-04-30T03:33:22.268Z,95274.00
2023-04-30T03:34:22.252Z,95274.00
2023-04-30T03:35:22.269Z,95274.00
2023-04-30T03:36:22.285Z,95274.00
2023-04-30T03:37:22.275Z,95272.00
2023-04-30T03:38:22.287Z,95272.00
2023-04-30T03:39:22.293Z,95270.00
2023-04-30T03:40:22.295Z,95272.00
2023-04-30T03:41:22.334Z,95270.00
2023-04-30T03:42:22.321Z,95272.00
2023-04-30T03:43:22.325Z,95272.00
2023-04-30T03:44:22.332Z,95270.00
2023-04-30T03:45:22.334Z,95272.00
2023-04-30T03:46:22.381Z,95272.00
2023-04-30T03:47:22.330Z,95272.00
2023-04-30T03:48:22.341Z,95272.00
2023-04-30T03:49:22.340Z,95274.00
2023-04-30T03:50:22.333Z,95272.00
2023-04-30T03:51:22.344Z,95274.00
2023-04-30T03:52:22.348Z,95276.00
2023-04-30T03:53:22.378Z,95276.00
2023-04-30T03:54:22.383Z,95278.00
2023-04-30T03:55:22.365Z,95274.00
2023-04-30T03:56:22.379Z,95276.00
2023-04-30T03:57:22.416Z,95274.00
2023-04-30T03:58:22.420Z,95276.00
2023-04-30T03:59:22.414Z,95276.00
2023-04-30T04:00:22.435Z,95276.00
2023-04-30T04:01:22.440Z,95278.00
2023-04-30T04:02:22.470Z,95278.00
2023-04-30T04:03:22.453Z,95276.00
2023-04-30T04:04:22.560Z,95276.00
2023-04-30T04:05:22.477Z,95278.00
2023-04-30T04:06:22.545Z,95278.00
2023-04-30T04:07:22.502Z,95276.00
2023-04-30T04:08:22.502Z,95276.00
2023-04-30T04:09:22.524Z,95276.00
2023-04-30T04:10:22.529Z,95280.00
2023-04-30T04:11:22.534Z,95280.00
2023-04-30T04:12:22.549Z,95278.00
2023-04-30T04:13:22.667Z,95276.00
2023-04-30T04:14:22.566Z,95278.00
2023-04-30T04:15:22.578Z,95280.00
2023-04-30T04:16:22.596Z,95278.00
2023-04-30T04:17:22.682Z,95280.00
2023-04-30T04:18:22.599Z,95278.00
2023-04-30T04:19:22.624Z,95280.00
2023-04-30T04:20:22.639Z,95278.00
2023-04-30T04:21:22.628Z,95280.00
2023-04-30T04:22:22.651Z,95282.00
2023-04-30T04:23:22.662Z,95280.00
2023-04-30T04:24:22.680Z,95280.00
2023-04-30T04:25:22.695Z,95280.00
2023-04-30T04:26:22.720Z,95282.00
2023-04-30T04:27:22.726Z,95282.00
2023-04-30T04:28:22.745Z,95280.00
2023-04-30T04:29:22.785Z,95280.00
2023-04-30T04:30:22.770Z,95278.00
2023-04-30T04:31:22.903Z,95282.00
2023-04-30T04:32:23.080Z,95282.00
2023-04-30T04:33:22.805Z,95282.00
2023-04-30T04:34:22.800Z,95282.00
2023-04-30T04:35:22.815Z,95286.00
2023-04-30T04:36:22.827Z,95286.00
2023-04-30T04:37:22.837Z,95286.00
2023-04-30T04:38:22.860Z,95286.00
2023-04-30T04:39:22.860Z,95284.00
2023-04-30T04:40:22.870Z,95280.00
2023-04-30T04:41:22.880Z,95278.00
2023-04-30T04:42:22.892Z,95280.00
2023-04-30T04:43:22.919Z,95278.00
2023-04-30T04:44:22.922Z,95280.00
2023-04-30T04:45:22.956Z,95280.00
2023-04-30T04:46:23.029Z,95280.00
2023-04-30T04:47:23.008Z,95278.00
2023-04-30T04:48:22.994Z,95276.00
2023-04-30T04:49:22.978Z,95278.00
2023-04-30T04:50:23.007Z,95276.00
2023-04-30T04:51:23.011Z,95280.00
2023-04-30T04:52:23.023Z,95274.00
2023-04-30T04:53:23.037Z,95274.00
2023-04-30T04:54:23.049Z,95276.00
2023-04-30T04:55:23.071Z,95274.00
2023-04-30T04:56:23.084Z,95276.00
2023-04-30T04:57:23.085Z,95276.00
2023-04-30T04:58:23.096Z,95274.00
2023-04-30T04:59:23.100Z,95274.00
2023-04-30T05:00:23.138Z,95274.00
2023-04-30T05:01:23.185Z,95276.00
2023-04-30T05:02:23.255Z,95274.00
2023-04-30T05:03:23.206Z,95274.00
2023-04-30T05:04:23.184Z,95274.00
2023-04-30T05:05:23.190Z,95272.00
2023-04-30T05:06:23.241Z,95274.00
2023-04-30T05:07:23.220Z,95274.00
2023-04-30T05:08:23.239Z,95274.00
2023-04-30T05:09:23.260Z,95270.00
2023-04-30T05:10:23.281Z,95272.00
2023-04-30T05:11:23.296Z,95272.00
2023-04-30T05:12:23.313Z,95276.00
2023-04-30T05:13:23.325Z,95276.00
2023-04-30T05:14:23.356Z,95276.00
2023-04-30T05:15:23.365Z,95276.00
2023-04-30T05:16:23.442Z,95278.00
2023-04-30T05:17:23.478Z,95280.00
2023-04-30T05:18:23.408Z,95278.00
2023-04-30T05:19:23.429Z,95282.00
2023-04-30T05:20:23.455Z,95276.00
2023-04-30T05:21:23.482Z,95280.00
2023-04-30T05:22:23.499Z,95276.00
2023-04-30T05:23:23.495Z,95278.00
2023-04-30T05:24:23.523Z,95278.00
2023-04-30T05:25:23.543Z,95280.00
2023-04-30T05:26:23.549Z,95280.00
2023-04-30T05:27:23.575Z,95278.00
2023-04-30T05:28:23.587Z,95278.00
2023-04-30T05:29:23.628Z,95280.00
2023-04-30T05:30:23.622Z,95284.00
2023-04-30T05:31:23.681Z,95282.00
2023-04-30T05:32:23.742Z,95278.00
2023-04-30T05:33:23.702Z,95280.00
2023-04-30T05:34:23.698Z,95278.00
2023-04-30T05:35:23.724Z,95278.00
2023-04-30T05:36:23.767Z,95278.00
2023-04-30T05:37:23.745Z,95278.00
2023-04-30T05:38:23.777Z,95280.00
2023-04-30T05:39:23.780Z,95280.00
2023-04-30T05:40:23.800Z,95280.00
2023-04-30T05:41:23.815Z,95278.00
2023-04-30T05:42:23.848Z,95280.00
2023-04-30T05:43:23.861Z,95280.00
2023-04-30T05:44:23.872Z,95282.00
2023-04-30T05:45:23.881Z,95280.00
2023-04-30T05:46:23.960Z,95282.00
2023-04-30T05:47:23.920Z,95284.00
2023-04-30T05:48:23.931Z,95284.00
2023-04-30T05:49:23.966Z,95286.00
2023-04-30T05:50:23.963Z,95286.00
2023-04-30T05:51:23.947Z,95290.00
2023-04-30T05:52:23.956Z,95292.00
2023-04-30T05:53:23.964Z,95292.00
2023-04-30T05:54:23.985Z,95294.00
2023-04-30T05:55:23.995Z,95296.00
2023-04-30T05:56:24.004Z,95298.00
2023-04-30T05:57:24.022Z,95298.00
2023-04-30T05:58:24.049Z,95298.00
2023-04-30T05:59:24.048Z,95300.00
2023-04-30T06:00:24.064Z,95300.00
2023-04-30T06:01:24.441Z,95300.00
2023-04-30T06:02:24.585Z,95300.00
2023-04-30T06:03:24.480Z,95298.00
2023-04-30T06:04:24.489Z,95298.00
2023-04-30T06:05:24.566Z,95298.00
2023-04-30T06:06:24.535Z,95296.00
2023-04-30T06:07:24.480Z,95298.00
2023-04-30T06:08:24.494Z,95300.00
2023-04-30T06:09:24.484Z,95298.00
2023-04-30T06:10:24.490Z,95300.00
2023-04-30T06:11:24.489Z,95300.00
2023-04-30T06:12:24.501Z,95300.00
2023-04-30T06:13:24.490Z,95300.00
2023-04-30T06:14:24.493Z,95298.00
2023-04-30T06:15:24.490Z,95296.00
2023-04-30T06:16:24.559Z,95298.00
2023-04-30T06:17:24.502Z,95296.00
2023-04-30T06:18:24.492Z,95294.00
2023-04-30T06:19:24.493Z,95296.00
2023-04-30T06:20:24.493Z,95298.00
2023-04-30T06:21:24.513Z,95294.00
2023-04-30T06:22:24.916Z,95298.00
2023-04-30T06:23:24.491Z,95298.00
2023-04-30T06:24:24.495Z,95296.00
2023-04-30T06:25:24.491Z,95296.00
2023-04-30T06:26:24.527Z,95298.00
2023-04-30T06:27:24.493Z,95296.00
2023-04-30T06:28:24.500Z,95298.00
2023-04-30T06:29:24.500Z,95296.00
2023-04-30T06:30:24.496Z,95292.00
2023-04-30T06:31:24.534Z,95294.00
2023-04-30T06:32:24.529Z,95294.00
2023-04-30T06:33:24.510Z,95296.00
2023-04-30T06:34:24.523Z,95296.00
2023-04-30T06:35:24.526Z,95294.00
2023-04-30T06:36:24.538Z,95294.00
2023-04-30T06:37:24.583Z,95296.00
2023-04-30T06:38:24.574Z,95292.00
2023-04-30T06:39:24.589Z,95292.00
2023-04-30T06:40:24.619Z,95290.00
2023-04-30T06:41:24.619Z,95290.00
2023-04-30T06:42:24.648Z,95288.00
2023-04-30T06:43:24.650Z,95290.00
2023-04-30T06:44:24.691Z,95288.00
2023-04-30T06:45:24.677Z,95290.00
2023-04-30T06:46:24.754Z,95290.00
2023-04-30T06:47:24.745Z,95290.00
2023-04-30T06:48:24.725Z,95288.00
2023-04-30T06:49:24.729Z,95290.00
2023-04-30T06:50:24.736Z,95292.00
2023-04-30T06:51:24.763Z,95284.00
2023-04-30T06:52:24.765Z,95288.00
2023-04-30T06:53:24.807Z,95288.00
2023-04-30T06:54:24.795Z,95290.00
2023-04-30T06:55:24.813Z,95292.00
2023-04-30T06:56:24.824Z,95292.00
2023-04-30T06:57:24.842Z,95292.00
2023-04-30T06:58:24.858Z,95294.00
2023-04-30T06:59:24.867Z,95294.00
2023-04-30T07:00:24.873Z,95296.00
2023-04-30T07:01:24.916Z,95294.00
2023-04-30T07:02:25.027Z,95294.00
2023-04-30T07:03:25.070Z,95296.00
2023-04-30T07:04:24.924Z,95296.00
2023-04-30T07:05:24.933Z,95300.00
2023-04-30T07:06:24.961Z,95298.00
2023-04-30T07:07:24.958Z,95298.00
2023-04-30T07:08:24.973Z,95300.00
2023-04-30T07:09:25.016Z,95298.00
2023-04-30T07:10:25.025Z,95298.00
2023-04-30T07:11:25.007Z,95296.00
2023-04-30T07:12:25.001Z,95296.00
2023-04-30T07:13:25.016Z,95294.00
2023-04-30T07:14:25.027Z,95292.00
2023-04-30T07:15:25.047Z,95290.00
2023-04-30T07:16:25.138Z,95290.00
2023-04-30T07:17:27.524Z,95290.00
2023-04-30T07:18:25.059Z,95286.00
2023-04-30T07:19:25.022Z,95292.00
2023-04-30T07:20:25.051Z,95288.00
2023-04-30T07:21:24.986Z,95290.00
2023-04-30T07:22:24.988Z,95288.00
2023-04-30T07:23:24.955Z,95288.00
2023-04-30T07:24:24.936Z,95288.00
2023-04-30T07:25:24.979Z,95288.00
2023-04-30T07:26:24.903Z,95288.00
2023-04-30T07:27:24.888Z,95288.00
2023-04-30T07:28:24.897Z,95288.00
2023-04-30T07:29:24.891Z,95288.00
2023-04-30T07:30:25.311Z,95290.00
2023-04-30T07:31:25.557Z,95288.00
2023-04-30T07:32:24.823Z,95286.00
2023-04-30T07:33:24.810Z,95286.00
2023-04-30T07:34:24.812Z,95284.00
2023-04-30T07:35:24.803Z,95284.00
2023-04-30T07:36:24.757Z,95282.00
2023-04-30T07:37:24.740Z,95282.00
2023-04-30T07:38:24.772Z,95280.00
2023-04-30T07:39:24.715Z,95280.00
2023-04-30T07:40:34.859Z,95278.00
2023-04-30T07:41:24.703Z,95278.00
2023-04-30T07:42:24.669Z,95276.00
2023-04-30T07:43:24.637Z,95278.00
2023-04-30T07:44:24.619Z,95276.00
2023-04-30T07:45:24.613Z,95276.00
2023-04-30T07:46:24.620Z,95276.00
2023-04-30T07:47:24.607Z,95274.00
2023-04-30T07:48:24.557Z,95274.00
2023-04-30T07:49:24.543Z,95274.00
2023-04-30T07:50:24.955Z,95274.00
2023-04-30T07:51:24.537Z,95270.00
2023-04-30T07:52:24.556Z,95272.00
2023-04-30T07:53:24.536Z,95268.00
2023-04-30T07:54:24.549Z,95266.00
2023-04-30T07:55:24.548Z,95268.00
2023-04-30T07:56:24.546Z,95264.00
2023-04-30T07:57:24.589Z,95263.00
2023-04-30T07:58:24.564Z,95263.00
2023-04-30T07:59:24.711Z,95261.00
2023-04-30T08:00:24.553Z,95261.00
2023-04-30T08:01:24.547Z,95261.00
2023-04-30T08:02:24.769Z,95261.00
2023-04-30T08:03:24.641Z,95261.00
2023-04-30T08:04:24.576Z,95259.00
2023-04-30T08:05:24.560Z,95259.00
2023-04-30T08:06:24.639Z,95263.00
2023-04-30T08:07:24.553Z,95259.00
2023-04-30T08:08:24.550Z,95259.00
2023-04-30T08:09:24.549Z,95259.00
2023-04-30T08:10:24.560Z,95259.00
2023-04-30T08:11:24.570Z,95261.00
2023-04-30T08:12:24.550Z,95261.00
2023-04-30T08:13:24.577Z,95261.00
2023-04-30T08:14:24.521Z,95261.00
2023-04-30T08:15:24.143Z,95259.00
2023-04-30T08:16:24.196Z,95261.00
2023-04-30T08:17:24.191Z,95261.00
2023-04-30T08:18:24.106Z,95259.00
2023-04-30T08:19:24.104Z,95259.00
2023-04-30T08:20:24.081Z,95257.00
2023-04-30T08:21:24.055Z,95264.00
2023-04-30T08:22:24.059Z,95263.00
2023-04-30T08:23:24.024Z,95261.00
2023-04-30T08:24:24.015Z,95261.00
2023-04-30T08:25:24.006Z,95261.00
2023-04-30T08:26:24.001Z,95259.00
2023-04-30T08:27:23.981Z,95253.00
2023-04-30T08:28:23.966Z,95255.00
2023-04-30T08:29:23.973Z,95259.00
2023-04-30T08:30:23.944Z,95259.00
2023-04-30T08:31:23.925Z,95255.00
2023-04-30T08:32:24.171Z,95255.00
2023-04-30T08:33:24.147Z,95253.00
2023-04-30T08:34:23.863Z,95255.00
2023-04-30T08:35:23.861Z,95253.00
2023-04-30T08:36:23.834Z,95253.00
2023-04-30T08:37:23.824Z,95251.00
2023-04-30T08:38:23.806Z,95253.00
2023-04-30T08:39:23.816Z,95251.00
2023-04-30T08:40:43.429Z,95251.00
2023-04-30T08:41:23.797Z,95251.00
2023-04-30T08:42:23.792Z,95253.00
2023-04-30T08:43:23.791Z,95251.00
2023-04-30T08:44:23.992Z,95251.00
2023-04-30T08:45:23.745Z,95249.00
2023-04-30T08:46:23.731Z,95253.00
2023-04-30T08:47:23.684Z,95251.00
2023-04-30T08:48:23.708Z,95247.00
2023-04-30T08:49:24.728Z,95247.00
2023-04-30T08:50:23.603Z,95247.00
2023-04-30T08:51:23.582Z,95247.00
2023-04-30T08:52:23.566Z,95247.00
2023-04-30T08:53:23.538Z,95243.00
2023-04-30T08:54:23.512Z,95241.00
2023-04-30T08:55:23.490Z,95245.00
2023-04-30T08:56:25.315Z,95243.00
2023-04-30T08:57:23.454Z,95239.00
2023-04-30T08:58:23.427Z,95241.00
2023-04-30T08:59:23.401Z,95239.00
2023-04-30T09:00:23.386Z,95237.00
2023-04-30T09:01:23.443Z,95237.00
2023-04-30T09:02:23.450Z,95237.00
2023-04-30T09:03:23.489Z,95239.00
2023-04-30T09:04:23.309Z,95239.00
2023-04-30T09:05:23.283Z,95241.00
2023-04-30T09:06:23.320Z,95239.00
2023-04-30T09:07:23.252Z,95239.00
2023-04-30T09:08:23.243Z,95241.00
2023-04-30T09:09:23.246Z,95237.00
2023-04-30T09:10:23.216Z,95239.00
2023-04-30T09:11:23.195Z,95239.00
2023-04-30T09:12:23.182Z,95237.00
2023-04-30T09:13:23.166Z,95237.00
2023-04-30T09:14:23.488Z,95237.00
2023-04-30T09:15:23.144Z,95237.00
2023-04-30T09:16:23.192Z,95237.00
2023-04-30T09:17:23.213Z,95237.00
2023-04-30T09:18:23.090Z,95235.00
2023-04-30T09:19:23.079Z,95237.00
2023-04-30T09:20:23.061Z,95235.00
2023-04-30T09:21:23.036Z,95235.00
2023-04-30T09:22:23.049Z,95231.00
2023-04-30T09:23:23.008Z,95231.00
2023-04-30T09:24:22.981Z,95231.00
2023-04-30T09:25:22.983Z,95231.00
2023-04-30T09:26:22.950Z,95229.00
2023-04-30T09:27:22.934Z,95227.00
2023-04-30T09:28:22.916Z,95227.00
2023-04-30T09:29:22.902Z,95225.00
2023-04-30T09:30:22.880Z,95223.00
2023-04-30T09:31:22.951Z,95227.00
2023-04-30T09:32:22.873Z,95223.00
2023-04-30T09:33:22.849Z,95223.00
2023-04-30T09:34:22.809Z,95221.00
2023-04-30T09:35:22.794Z,95217.00
2023-04-30T09:36:22.779Z,95221.00
2023-04-30T09:37:22.763Z,95219.00
2023-04-30T09:38:22.740Z,95219.00
2023-04-30T09:39:22.714Z,95217.00
2023-04-30T09:40:22.702Z,95217.00
2023-04-30T09:41:22.681Z,95217.00
2023-04-30T09:42:22.690Z,95217.00
2023-04-30T09:43:22.674Z,95217.00
2023-04-30T09:44:22.657Z,95213.00
2023-04-30T09:45:22.650Z,95213.00
2023-04-30T09:46:22.712Z,95213.00
2023-04-30T09:47:22.606Z,95213.00
2023-04-30T09:48:22.624Z,95211.00
2023-04-30T09:49:22.570Z,95209.00
2023-04-30T09:50:22.537Z,95209.00
2023-04-30T09:51:22.499Z,95208.00
2023-04-30T09:52:22.483Z,95206.00
2023-04-30T09:53:22.469Z,95208.00
2023-04-30T09:54:22.460Z,95206.00
2023-04-30T09:55:22.424Z,95202.00
2023-04-30T09:56:22.418Z,95202.00
2023-04-30T09:57:22.399Z,95202.00
2023-04-30T09:58:22.398Z,95202.00
2023-04-30T09:59:22.372Z,95200.00
2023-04-30T10:00:22.350Z,95198.00
2023-04-30T10:01:22.384Z,95196.00
2023-04-30T10:02:22.362Z,95192.00
2023-04-30T10:03:22.289Z,95194.00
2023-04-30T10:04:22.417Z,95190.00
2023-04-30T10:05:22.299Z,95188.00
2023-04-30T10:06:22.299Z,95188.00
2023-04-30T10:07:22.827Z,95186.00
2023-04-30T10:08:22.206Z,95186.00
2023-04-30T10:09:22.185Z,95186.00
2023-04-30T10:10:22.238Z,95186.00
2023-04-30T10:11:22.144Z,95186.00
2023-04-30T10:12:22.143Z,95186.00
2023-04-30T10:13:22.106Z,95180.00
2023-04-30T10:14:22.095Z,95180.00
2023-04-30T10:15:22.108Z,95178.00
2023-04-30T10:16:22.078Z,95178.00
2023-04-30T10:17:22.050Z,95174.00
2023-04-30T10:18:22.018Z,95172.00
2023-04-30T10:19:22.037Z,95170.00
2023-04-30T10:20:22.008Z,95168.00
2023-04-30T10:21:22.030Z,95168.00
2023-04-30T10:22:21.996Z,95166.00
2023-04-30T10:23:22.002Z,95166.00
2023-04-30T10:24:22.005Z,95166.00
2023-04-30T10:25:21.949Z,95164.00
2023-04-30T10:26:21.945Z,95162.00
2023-04-30T10:27:21.992Z,95161.00
2023-04-30T10:28:21.932Z,95159.00
2023-04-30T10:29:21.943Z,95153.00
2023-04-30T10:30:21.944Z,95155.00
2023-04-30T10:31:21.932Z,95155.00
2023-04-30T10:32:21.979Z,95157.00
2023-04-30T10:33:22.006Z,95159.00
2023-04-30T10:34:21.886Z,95153.00
2023-04-30T10:35:21.878Z,95151.00
2023-04-30T10:36:21.868Z,95153.00
2023-04-30T10:37:21.883Z,95153.00
2023-04-30T10:38:21.860Z,95151.00
2023-04-30T10:39:21.860Z,95149.00
2023-04-30T10:40:21.866Z,95147.00
2023-04-30T10:41:21.871Z,95147.00
2023-04-30T10:42:21.885Z,95145.00
2023-04-30T10:43:21.885Z,95143.00
2023-04-30T10:44:21.871Z,95141.00
2023-04-30T10:45:21.869Z,95141.00
2023-04-30T10:46:21.899Z,95139.00
2023-04-30T10:47:21.851Z,95141.00
2023-04-30T10:48:21.852Z,95143.00
2023-04-30T10:49:21.855Z,95143.00
2023-04-30T10:50:21.858Z,95139.00
2023-04-30T10:51:21.875Z,95139.00
2023-04-30T10:52:21.863Z,95131.00
2023-04-30T10:53:21.892Z,95129.00
2023-04-30T10:54:21.854Z,95127.00
2023-04-30T10:55:21.847Z,95127.00
2023-04-30T10:56:21.840Z,95127.00
2023-04-30T10:57:21.865Z,95123.00
2023-04-30T10:58:21.840Z,95125.00
2023-04-30T10:59:21.826Z,95125.00
2023-04-30T11:00:21.848Z,95125.00
2023-04-30T11:01:21.827Z,95121.00
2023-04-30T11:02:21.840Z,95119.00
2023-04-30T11:03:21.810Z,95119.00
2023-04-30T11:04:21.868Z,95115.00
2023-04-30T11:05:21.809Z,95117.00
2023-04-30T11:06:21.850Z,95115.00
2023-04-30T11:07:21.817Z,95115.00
2023-04-30T11:08:21.812Z,95117.00
2023-04-30T11:09:21.818Z,95111.00
2023-04-30T11:10:21.790Z,95113.00
2023-04-30T11:11:21.775Z,95113.00
2023-04-30T11:12:21.772Z,95111.00
2023-04-30T11:13:21.768Z,95111.00
2023-04-30T11:14:21.776Z,95109.00
2023-04-30T11:15:21.822Z,95108.00
2023-04-30T11:16:21.820Z,95108.00
2023-04-30T11:17:21.819Z,95109.00
2023-04-30T11:18:21.764Z,95104.00
2023-04-30T11:19:21.788Z,95108.00
2023-04-30T11:20:21.785Z,95104.00
2023-04-30T11:21:21.725Z,95104.00
2023-04-30T11:22:21.745Z,95104.00
2023-04-30T11:23:28.496Z,95102.00
2023-04-30T11:24:21.701Z,95102.00
2023-04-30T11:25:21.705Z,95096.00
2023-04-30T11:26:21.664Z,95098.00
2023-04-30T11:27:21.669Z,95096.00
2023-04-30T11:28:21.654Z,95092.00
2023-04-30T11:29:21.698Z,95096.00
2023-04-30T11:30:21.625Z,95094.00
2023-04-30T11:31:21.632Z,95096.00
2023-04-30T11:32:21.628Z,95090.00
2023-04-30T11:33:21.573Z,95094.00
2023-04-30T11:34:21.567Z,95088.00
2023-04-30T11:35:21.564Z,95090.00
2023-04-30T11:36:21.526Z,95086.00
2023-04-30T11:37:21.513Z,95084.00
2023-04-30T11:38:21.516Z,95086.00
2023-04-30T11:39:21.479Z,95084.00
2023-04-30T11:40:21.464Z,95082.00
2023-04-30T11:41:21.490Z,95080.00
2023-04-30T11:42:21.451Z,95084.00
2023-04-30T11:43:21.431Z,95084.00
2023-04-30T11:44:21.417Z,95078.00